createdAt,value
2022-11-10T00:00:59.075Z,84.47
2022-11-10T00:03:28.176Z,84.62
2022-11-10T00:05:56.424Z,84.36
2022-11-10T00:08:25.299Z,85.05
2022-11-10T00:10:58.575Z,85.04
2022-11-10T00:13:27.267Z,85.09
2022-11-10T00:16:12.208Z,84.86
2022-11-10T00:18:39.823Z,85.27
2022-11-10T00:21:09.054Z,84.98
2022-11-10T00:23:37.853Z,85.94
2022-11-10T00:26:05.655Z,85.63
2022-11-10T00:28:33.657Z,85.72
2022-11-10T00:31:06.081Z,85.90
2022-11-10T00:33:35.376Z,85.86
2022-11-10T00:36:02.922Z,85.65
2022-11-10T00:38:30.492Z,85.49
2022-11-10T00:41:00.802Z,85.20
2022-11-10T00:43:29.325Z,85.59
2022-11-10T00:45:57.197Z,85.45
2022-11-10T00:48:24.676Z,86.15
2022-11-10T00:50:52.311Z,84.92
2022-11-10T00:53:20.536Z,85.17
2022-11-10T00:55:48.636Z,85.68
2022-11-10T00:58:17.680Z,85.23
2022-11-10T01:00:45.172Z,85.70
2022-11-10T01:03:14.679Z,85.52
2022-11-10T01:05:42.228Z,85.53
2022-11-10T01:08:09.979Z,85.61
2022-11-10T01:10:37.463Z,85.08
2022-11-10T01:13:04.909Z,85.21
2022-11-10T01:15:33.690Z,85.22
2022-11-10T01:18:01.169Z,84.79
2022-11-10T01:20:28.635Z,85.09
2022-11-10T01:22:56.123Z,85.06
2022-11-10T01:25:23.596Z,85.18
2022-11-10T01:27:51.636Z,85.15
2022-11-10T01:30:19.619Z,85.21
2022-11-10T01:32:48.413Z,84.22
2022-11-10T01:35:16.023Z,84.41
2022-11-10T01:37:43.523Z,84.71
2022-11-10T01:40:12.326Z,84.46
2022-11-10T01:42:45.207Z,84.71
2022-11-10T01:45:45.109Z,84.71
2022-11-10T01:48:16.923Z,84.22
2022-11-10T01:50:44.680Z,85.42
2022-11-10T01:53:15.619Z,84.70
2022-11-10T01:55:44.475Z,84.76
2022-11-10T01:58:14.291Z,84.84
2022-11-10T02:00:41.808Z,84.94
2022-11-10T02:03:13.327Z,85.50
2022-11-10T02:05:43.588Z,85.44
2022-11-10T02:08:12.710Z,85.77
2022-11-10T02:10:40.157Z,85.02
2022-11-10T02:13:07.692Z,85.58
2022-11-10T02:15:35.150Z,85.93
2022-11-10T02:18:02.600Z,85.99
2022-11-10T02:20:30.070Z,86.11
2022-11-10T02:22:58.868Z,86.18
2022-11-10T02:25:30.675Z,86.71
2022-11-10T02:27:58.118Z,87.11
2022-11-10T02:30:27.943Z,87.30
2022-11-10T02:32:55.438Z,86.64
2022-11-10T02:35:22.880Z,85.92
2022-11-10T02:37:50.347Z,86.32
2022-11-10T02:40:19.240Z,86.95
2022-11-10T02:42:46.687Z,86.83
2022-11-10T02:45:14.303Z,86.57
2022-11-10T02:47:41.755Z,86.56
2022-11-10T02:50:09.906Z,86.80
2022-11-10T02:55:20.097Z,86.46
2022-11-10T02:57:47.543Z,86.78
2022-11-10T03:00:15.111Z,86.31
2022-11-10T03:02:42.530Z,86.48
2022-11-10T03:05:10.096Z,85.79
2022-11-10T03:07:38.025Z,87.17
2022-11-10T03:10:06.230Z,86.19
2022-11-10T03:12:35.000Z,85.83
2022-11-10T03:15:02.449Z,86.17
2022-11-10T03:17:29.904Z,85.70
2022-11-10T03:19:57.326Z,85.30
2022-11-10T03:22:24.776Z,84.66
2022-11-10T03:24:52.205Z,84.41
2022-11-10T03:27:19.636Z,83.89
2022-11-10T03:29:48.417Z,84.75
2022-11-10T03:32:15.936Z,84.84
2022-11-10T03:34:43.433Z,84.34
2022-11-10T03:37:10.903Z,84.50
2022-11-10T03:39:38.335Z,84.72
2022-11-10T03:42:05.830Z,84.48
2022-11-10T03:44:33.267Z,84.80
2022-11-10T03:47:03.780Z,84.13
2022-11-10T03:49:31.298Z,85.40
2022-11-10T03:51:58.780Z,85.30
2022-11-10T03:54:26.239Z,84.50
2022-11-10T03:56:53.684Z,85.03
2022-11-10T03:59:21.136Z,84.82
2022-11-10T04:01:48.629Z,84.48
2022-11-10T04:04:31.380Z,84.14
2022-11-10T04:07:16.321Z,85.21
2022-11-10T04:09:43.828Z,85.68
2022-11-10T04:12:28.883Z,85.70
2022-11-10T04:15:13.936Z,86.00
2022-11-10T04:17:41.407Z,85.89
2022-11-10T04:20:11.301Z,85.84
2022-11-10T04:22:56.526Z,87.54
2022-11-10T04:25:23.983Z,87.58
2022-11-10T04:27:51.456Z,88.29
2022-11-10T04:30:19.151Z,87.97
2022-11-10T04:32:46.596Z,87.14
2022-11-10T04:35:15.437Z,88.02
2022-11-10T04:37:42.952Z,87.44
2022-11-10T04:40:11.489Z,88.06
2022-11-10T04:42:40.563Z,87.29
2022-11-10T04:45:08.873Z,87.23
2022-11-10T04:47:36.327Z,87.28
2022-11-10T04:50:03.785Z,87.09
2022-11-10T04:52:32.571Z,86.63
2022-11-10T04:54:59.996Z,87.76
2022-11-10T04:57:27.440Z,87.58
2022-11-10T04:59:54.875Z,87.80
2022-11-10T05:02:22.337Z,87.28
2022-11-10T05:04:49.786Z,86.58
2022-11-10T05:07:17.227Z,87.08
2022-11-10T05:09:46.013Z,88.04
2022-11-10T05:12:17.344Z,88.01
2022-11-10T05:14:47.270Z,88.82
2022-11-10T05:17:14.824Z,87.90
2022-11-10T05:19:42.533Z,87.78
2022-11-10T05:22:10.020Z,86.43
2022-11-10T05:24:37.456Z,86.60
2022-11-10T05:27:06.319Z,87.23
2022-11-10T05:29:33.764Z,87.21
2022-11-10T05:32:01.218Z,86.65
2022-11-10T05:34:28.764Z,86.94
2022-11-10T05:36:56.213Z,86.12
2022-11-10T05:39:23.635Z,87.12
2022-11-10T05:41:51.095Z,86.41
2022-11-10T05:44:19.863Z,85.43
2022-11-10T05:46:48.258Z,87.64
2022-11-10T05:49:15.704Z,86.37
2022-11-10T05:51:43.255Z,87.13
2022-11-10T05:54:10.864Z,87.28
2022-11-10T05:56:38.320Z,86.90
2022-11-10T05:59:05.885Z,86.20
2022-11-10T06:01:34.677Z,87.12
2022-11-10T06:04:03.039Z,87.11
2022-11-10T06:06:30.541Z,88.02
2022-11-10T06:08:59.251Z,87.47
2022-11-10T06:11:26.748Z,87.82
2022-11-10T06:13:54.186Z,87.39
2022-11-10T06:16:21.672Z,86.90
2022-11-10T06:18:50.465Z,87.88
2022-11-10T06:21:17.937Z,86.79
2022-11-10T06:23:45.392Z,87.05
2022-11-10T06:26:12.856Z,87.99
2022-11-10T06:28:40.350Z,87.52
2022-11-10T06:31:07.822Z,87.38
2022-11-10T06:33:35.311Z,86.36
2022-11-10T06:36:04.425Z,86.10
2022-11-10T06:38:31.867Z,86.38
2022-11-10T06:40:59.311Z,85.90
2022-11-10T06:43:26.770Z,86.75
2022-11-10T06:45:54.251Z,86.71
2022-11-10T06:48:21.711Z,86.70
2022-11-10T06:50:49.188Z,86.87
2022-11-10T06:53:21.709Z,87.83
2022-11-10T06:55:51.823Z,86.43
2022-11-10T06:58:19.607Z,86.76
2022-11-10T07:00:47.550Z,87.76
2022-11-10T07:03:16.035Z,88.73
2022-11-10T07:05:43.672Z,87.72
2022-11-10T07:08:13.539Z,88.48
2022-11-10T07:10:42.787Z,87.85
2022-11-10T07:13:11.059Z,88.18
2022-11-10T07:15:38.566Z,88.24
2022-11-10T07:18:06.167Z,88.99
2022-11-10T07:20:33.625Z,88.58
2022-11-10T07:23:03.473Z,89.06
2022-11-10T07:25:32.273Z,90.01
2022-11-10T07:28:03.043Z,90.58
2022-11-10T07:30:31.838Z,88.70
2022-11-10T07:33:02.972Z,89.07
2022-11-10T07:35:31.092Z,88.10
2022-11-10T07:37:59.525Z,88.96
2022-11-10T07:40:27.110Z,89.19
2022-11-10T07:42:54.648Z,89.64
2022-11-10T07:45:23.587Z,89.26
2022-11-10T07:47:51.317Z,90.15
2022-11-10T07:50:19.247Z,89.65
2022-11-10T07:52:46.703Z,90.11
2022-11-10T07:55:14.211Z,90.95
2022-11-10T07:57:41.679Z,90.86
2022-11-10T08:00:12.623Z,89.78
2022-11-10T08:02:41.420Z,88.99
2022-11-10T08:05:09.754Z,90.30
2022-11-10T08:07:37.304Z,90.29
2022-11-10T08:10:05.318Z,90.72
2022-11-10T08:12:33.843Z,91.18
2022-11-10T08:15:01.635Z,90.83
2022-11-10T08:17:29.074Z,91.39
2022-11-10T08:19:57.910Z,91.05
2022-11-10T08:22:25.355Z,91.56
2022-11-10T08:24:52.804Z,90.74
2022-11-10T08:27:20.260Z,90.77
2022-11-10T08:29:47.728Z,91.24
2022-11-10T08:32:15.166Z,91.56
2022-11-10T08:34:42.600Z,91.90
2022-11-10T08:37:12.462Z,91.67
2022-11-10T08:39:40.883Z,91.50
2022-11-10T08:42:08.327Z,91.58
2022-11-10T08:44:35.767Z,92.08
2022-11-10T08:47:03.326Z,91.72
2022-11-10T08:49:30.767Z,92.18
2022-11-10T08:51:58.207Z,92.15
2022-11-10T08:54:26.985Z,93.16
2022-11-10T08:56:54.788Z,93.04
2022-11-10T08:59:22.250Z,93.19
2022-11-10T09:01:49.692Z,92.22
2022-11-10T09:04:17.175Z,92.47
2022-11-10T09:06:44.727Z,92.77
2022-11-10T09:09:12.268Z,92.15
2022-11-10T09:11:41.395Z,91.80
2022-11-10T09:14:08.830Z,91.98
2022-11-10T09:16:36.277Z,92.33
2022-11-10T09:19:03.739Z,92.03
2022-11-10T09:21:31.256Z,92.69
2022-11-10T09:23:58.713Z,92.11
2022-11-10T09:26:26.179Z,92.17
2022-11-10T09:28:55.008Z,92.86
2022-11-10T09:31:22.460Z,93.18
2022-11-10T09:33:50.104Z,93.77
2022-11-10T09:36:17.578Z,93.85
2022-11-10T09:38:45.012Z,92.50
2022-11-10T09:41:13.939Z,93.32
2022-11-10T09:43:44.407Z,93.24
2022-11-10T09:46:17.337Z,93.62
2022-11-10T09:48:48.279Z,93.65
2022-11-10T09:51:19.526Z,93.45
2022-11-10T09:53:51.156Z,92.70
2022-11-10T09:56:21.448Z,92.97
2022-11-10T09:58:49.025Z,93.87
2022-11-10T10:01:30.060Z,92.92
2022-11-10T10:04:06.583Z,93.02
2022-11-10T10:06:57.035Z,92.96
2022-11-10T10:09:28.690Z,93.00
2022-11-10T10:12:04.162Z,93.48
2022-11-10T10:14:45.693Z,93.22
2022-11-10T10:17:23.629Z,93.22
2022-11-10T10:19:59.259Z,92.45
2022-11-10T10:22:37.459Z,93.05
2022-11-10T10:25:12.593Z,92.83
2022-11-10T10:27:41.890Z,93.01
2022-11-10T10:30:14.184Z,92.90
2022-11-10T10:32:43.167Z,92.76
2022-11-10T10:35:13.968Z,92.56
2022-11-10T10:37:45.066Z,92.04
2022-11-10T10:40:16.109Z,92.05
2022-11-10T10:42:43.564Z,92.24
2022-11-10T10:45:18.911Z,92.89
2022-11-10T10:47:49.381Z,92.28
2022-11-10T10:50:23.575Z,92.25
2022-11-10T10:53:09.752Z,92.08
2022-11-10T10:55:38.064Z,93.20
2022-11-10T10:58:07.074Z,92.35
2022-11-10T11:00:43.949Z,92.54
2022-11-10T11:03:15.144Z,92.47
2022-11-10T11:05:42.602Z,92.34
2022-11-10T11:08:18.044Z,92.21
2022-11-10T11:10:46.569Z,92.19
2022-11-10T11:13:15.606Z,91.71
2022-11-10T11:15:43.083Z,91.63
2022-11-10T11:18:16.175Z,91.21
2022-11-10T11:20:49.653Z,91.30
2022-11-10T11:23:33.051Z,91.23
2022-11-10T11:26:04.202Z,91.04
2022-11-10T11:28:40.348Z,91.49
2022-11-10T11:31:14.994Z,90.96
2022-11-10T11:33:48.039Z,91.00
2022-11-10T11:36:25.564Z,90.73
2022-11-10T11:38:55.799Z,90.94
2022-11-10T11:41:33.837Z,90.77
2022-11-10T11:44:21.530Z,91.01
2022-11-10T11:46:54.161Z,90.30
2022-11-10T11:49:56.255Z,90.25
2022-11-10T11:52:29.460Z,90.60
2022-11-10T11:55:07.454Z,90.57
2022-11-10T11:57:44.946Z,90.72
2022-11-10T12:00:15.312Z,90.27
2022-11-10T12:03:00.463Z,90.65
2022-11-10T12:05:37.513Z,89.92
2022-11-10T12:08:15.411Z,89.85
2022-11-10T12:10:50.279Z,90.05
2022-11-10T12:13:31.094Z,90.04
2022-11-10T12:16:02.745Z,89.66
2022-11-10T12:18:33.535Z,89.70
2022-11-10T12:21:15.223Z,89.69
2022-11-10T12:23:54.100Z,89.56
2022-11-10T12:26:28.386Z,89.61
2022-11-10T12:29:03.418Z,89.33
2022-11-10T12:31:32.864Z,89.33
2022-11-10T12:34:03.139Z,89.12
2022-11-10T12:36:32.595Z,89.35
2022-11-10T12:39:02.875Z,88.98
2022-11-10T12:41:36.165Z,88.84
2022-11-10T12:44:13.143Z,89.31
2022-11-10T12:46:41.930Z,89.08
2022-11-10T12:49:18.810Z,89.03
2022-11-10T12:51:53.195Z,89.03
2022-11-10T12:54:21.756Z,88.80
2022-11-10T12:56:51.660Z,88.65
2022-11-10T12:59:31.055Z,88.77
2022-11-10T13:02:03.308Z,89.09
2022-11-10T13:04:31.912Z,89.09
2022-11-10T13:07:02.778Z,88.66
2022-11-10T13:09:32.198Z,88.92
2022-11-10T13:12:19.996Z,88.76
2022-11-10T13:14:47.835Z,88.32
2022-11-10T13:17:54.395Z,87.98
2022-11-10T13:20:49.607Z,88.08
2022-11-10T13:23:26.767Z,87.80
2022-11-10T13:25:59.185Z,87.80
2022-11-10T13:28:58.546Z,87.74
2022-11-10T13:31:56.630Z,87.72
2022-11-10T13:34:34.740Z,87.33
2022-11-10T13:37:03.329Z,87.29
2022-11-10T13:39:33.585Z,87.51
2022-11-10T13:42:03.898Z,87.32
2022-11-10T13:44:33.510Z,87.22
2022-11-10T13:47:34.787Z,87.14
2022-11-10T13:50:14.533Z,87.21
2022-11-10T13:52:51.517Z,87.11
2022-11-10T13:55:30.163Z,87.35
2022-11-10T13:58:00.511Z,87.33
2022-11-10T14:00:30.340Z,86.96
2022-11-10T14:03:00.782Z,87.22
2022-11-10T14:06:05.424Z,87.07
2022-11-10T14:08:49.660Z,86.63
2022-11-10T14:11:22.357Z,87.02
2022-11-10T14:13:54.228Z,86.86
2022-11-10T14:16:25.327Z,86.84
2022-11-10T14:18:57.984Z,86.99
2022-11-10T14:21:33.407Z,86.99
2022-11-10T14:24:08.279Z,87.30
2022-11-10T14:26:40.344Z,87.04
2022-11-10T14:29:39.861Z,87.23
2022-11-10T14:32:15.067Z,87.20
2022-11-10T14:34:47.539Z,87.11
2022-11-10T14:37:18.796Z,87.05
2022-11-10T14:39:46.408Z,87.07
2022-11-10T14:42:20.766Z,87.13
2022-11-10T14:44:48.563Z,87.31
2022-11-10T14:47:27.599Z,87.56
2022-11-10T14:50:18.699Z,87.51
2022-11-10T14:52:47.956Z,87.78
2022-11-10T14:55:18.183Z,87.69
2022-11-10T14:57:55.734Z,87.57
2022-11-10T15:00:26.144Z,87.47
2022-11-10T15:02:55.459Z,87.67
2022-11-10T15:05:23.303Z,87.69
2022-11-10T15:07:54.084Z,87.85
2022-11-10T15:10:23.997Z,87.78
2022-11-10T15:13:04.509Z,87.55
2022-11-10T15:15:32.006Z,87.78
2022-11-10T15:17:59.479Z,87.58
2022-11-10T15:20:29.317Z,87.71
2022-11-10T15:22:58.877Z,87.74
2022-11-10T15:25:33.414Z,87.81
2022-11-10T15:28:05.186Z,87.52
2022-11-10T15:30:32.791Z,87.39
2022-11-10T15:33:02.481Z,87.43
2022-11-10T15:35:32.027Z,87.37
2022-11-10T15:38:01.491Z,87.08
2022-11-10T15:40:30.958Z,86.90
2022-11-10T15:43:14.932Z,87.06
2022-11-10T15:45:43.750Z,86.59
2022-11-10T15:48:13.579Z,86.58
2022-11-10T15:50:42.013Z,86.40
2022-11-10T15:53:14.300Z,86.07
2022-11-10T15:55:42.046Z,86.12
2022-11-10T15:58:18.269Z,86.10
2022-11-10T16:00:45.803Z,85.87
2022-11-10T16:03:15.056Z,85.98
2022-11-10T16:05:42.543Z,85.65
2022-11-10T16:08:13.487Z,85.65
2022-11-10T16:10:41.812Z,85.97
2022-11-10T16:13:11.147Z,85.81
2022-11-10T16:15:40.535Z,85.76
2022-11-10T16:18:12.226Z,85.84
2022-11-10T16:20:39.721Z,86.25
2022-11-10T16:23:07.370Z,86.09
2022-11-10T16:25:35.016Z,85.74
2022-11-10T16:28:04.235Z,86.05
2022-11-10T16:30:32.082Z,86.26
2022-11-10T16:33:04.268Z,86.32
2022-11-10T16:35:32.908Z,86.04
2022-11-10T16:38:00.397Z,86.23
2022-11-10T16:40:27.848Z,86.61
2022-11-10T16:42:55.375Z,86.63
2022-11-10T16:45:24.658Z,86.74
2022-11-10T16:47:53.392Z,86.80
2022-11-10T16:50:32.341Z,86.73
2022-11-10T16:53:02.109Z,86.52
2022-11-10T16:55:29.596Z,86.55
2022-11-10T16:57:57.075Z,86.70
2022-11-10T17:00:24.804Z,86.71
2022-11-10T17:02:59.842Z,86.86
2022-11-10T17:05:27.363Z,86.55
2022-11-10T17:07:58.431Z,86.92
2022-11-10T17:10:25.975Z,86.36
2022-11-10T17:12:53.456Z,86.67
2022-11-10T17:15:20.924Z,86.52
2022-11-10T17:17:50.695Z,86.38
2022-11-10T17:20:20.491Z,86.76
2022-11-10T17:22:49.007Z,86.69
2022-11-10T17:25:25.830Z,86.50
2022-11-10T17:27:53.565Z,86.35
2022-11-10T17:30:21.430Z,86.35
2022-11-10T17:33:06.033Z,86.58
2022-11-10T17:35:37.711Z,86.78
2022-11-10T17:38:12.225Z,86.84
2022-11-10T17:40:41.935Z,86.45
2022-11-10T17:43:11.582Z,86.63
2022-11-10T17:45:39.864Z,86.51
2022-11-10T17:48:07.818Z,86.84
2022-11-10T17:50:37.019Z,86.77
2022-11-10T17:53:16.598Z,86.29
2022-11-10T17:55:45.421Z,86.56
2022-11-10T17:58:13.109Z,86.42
2022-11-10T18:00:40.575Z,86.52
2022-11-10T18:03:08.595Z,86.56
2022-11-10T18:05:36.513Z,86.34
2022-11-10T18:08:04.063Z,86.01
2022-11-10T18:10:33.847Z,86.41
2022-11-10T18:13:02.732Z,86.01
2022-11-10T18:15:30.196Z,86.02
2022-11-10T18:18:00.854Z,86.15
2022-11-10T18:20:28.680Z,86.12
2022-11-10T18:22:56.102Z,86.02
2022-11-10T18:25:23.559Z,86.04
2022-11-10T18:27:51.015Z,86.34
2022-11-10T18:30:19.902Z,85.92
2022-11-10T18:32:47.360Z,85.99
2022-11-10T18:35:14.869Z,85.79
2022-11-10T18:37:42.291Z,85.90
2022-11-10T18:40:11.175Z,85.87
2022-11-10T18:42:38.624Z,86.00
2022-11-10T18:45:07.173Z,85.83
2022-11-10T18:47:35.997Z,86.16
2022-11-10T18:50:03.454Z,86.17
2022-11-10T18:52:30.894Z,85.71
2022-11-10T18:54:58.323Z,85.92
2022-11-10T18:57:25.807Z,85.98
2022-11-10T18:59:53.640Z,85.87
2022-11-10T19:02:21.112Z,85.65
2022-11-10T19:04:53.506Z,85.78
2022-11-10T19:07:21.311Z,85.69
2022-11-10T19:09:48.807Z,85.74
2022-11-10T19:12:16.314Z,85.50
2022-11-10T19:14:43.833Z,85.48
2022-11-10T19:17:11.423Z,85.14
2022-11-10T19:19:38.871Z,85.17
2022-11-10T19:22:07.698Z,84.99
2022-11-10T19:24:53.818Z,84.99
2022-11-10T19:27:23.564Z,84.55
2022-11-10T19:29:51.030Z,84.62
2022-11-10T19:32:23.648Z,84.22
2022-11-10T19:34:52.520Z,84.65
2022-11-10T19:37:21.467Z,84.63
2022-11-10T19:39:48.945Z,84.21
2022-11-10T19:42:16.402Z,84.15
2022-11-10T19:44:43.891Z,83.99
2022-11-10T19:47:11.663Z,84.18
2022-11-10T19:49:39.102Z,84.12
2022-11-10T19:52:06.534Z,84.33
2022-11-10T19:54:35.387Z,83.99
2022-11-10T19:57:02.992Z,83.72
2022-11-10T19:59:30.450Z,83.48
2022-11-10T20:01:59.228Z,83.53
2022-11-10T20:04:27.012Z,83.65
2022-11-10T20:07:14.823Z,83.51
2022-11-10T20:09:43.628Z,83.45
2022-11-10T20:12:11.206Z,83.34
2022-11-10T20:14:38.695Z,83.16
2022-11-10T20:17:06.183Z,82.79
2022-11-10T20:19:40.880Z,82.73
2022-11-10T20:22:08.717Z,82.44
2022-11-10T20:24:36.691Z,82.39
2022-11-10T20:27:05.577Z,82.89
2022-11-10T20:29:33.048Z,82.51
2022-11-10T20:32:00.530Z,82.29
2022-11-10T20:34:27.983Z,82.27
2022-11-10T20:36:56.033Z,82.32
2022-11-10T20:39:23.453Z,82.34
2022-11-10T20:41:52.411Z,82.00
2022-11-10T20:44:21.242Z,82.36
2022-11-10T20:46:54.472Z,82.15
2022-11-10T20:49:22.688Z,81.85
2022-11-10T20:51:50.128Z,81.76
2022-11-10T20:54:17.604Z,81.86
2022-11-10T20:56:45.114Z,82.01
2022-11-10T20:59:12.640Z,82.13
2022-11-10T21:01:41.429Z,82.19
2022-11-10T21:04:10.059Z,82.23
2022-11-10T21:06:37.606Z,82.09
2022-11-10T21:09:05.342Z,82.09
2022-11-10T21:11:52.818Z,82.24
2022-11-10T21:14:20.287Z,81.90
2022-11-10T21:16:49.115Z,82.09
2022-11-10T21:19:16.589Z,82.03
2022-11-10T21:21:44.224Z,82.08
2022-11-10T21:24:11.970Z,81.91
2022-11-10T21:26:41.046Z,81.98
2022-11-10T21:29:08.625Z,81.90
2022-11-10T21:31:36.106Z,82.08
2022-11-10T21:34:04.989Z,82.32
2022-11-10T21:36:32.572Z,82.47
2022-11-10T21:39:00.112Z,81.86
2022-11-10T21:41:27.822Z,81.54
2022-11-10T21:43:55.281Z,82.18
2022-11-10T21:46:22.856Z,81.77
2022-11-10T21:48:50.830Z,82.04
2022-11-10T21:51:21.007Z,82.15
2022-11-10T21:53:48.486Z,81.99
2022-11-10T21:56:15.955Z,82.80
2022-11-10T21:58:43.434Z,82.18
2022-11-10T22:01:12.769Z,82.19
2022-11-10T22:03:40.759Z,81.99
2022-11-10T22:06:10.020Z,81.85
2022-11-10T22:08:42.515Z,82.18
2022-11-10T22:11:30.686Z,81.79
2022-11-10T22:14:15.886Z,81.68
2022-11-10T22:17:03.813Z,82.45
2022-11-10T22:19:31.699Z,82.13
2022-11-10T22:22:03.428Z,82.08
2022-11-10T22:24:33.641Z,82.22
2022-11-10T22:27:03.007Z,82.15
2022-11-10T22:29:32.839Z,82.06
2022-11-10T22:32:00.652Z,82.49
2022-11-10T22:34:28.400Z,81.88
2022-11-10T22:36:55.866Z,81.97
2022-11-10T22:39:43.461Z,81.99
2022-11-10T22:42:30.990Z,81.76
2022-11-10T22:44:58.535Z,81.80
2022-11-10T22:47:46.156Z,81.86
2022-11-10T22:50:13.610Z,82.23
2022-11-10T22:52:41.066Z,82.42
2022-11-10T22:55:08.874Z,82.35
2022-11-10T22:57:37.697Z,82.99
2022-11-10T23:00:06.031Z,82.27
2022-11-10T23:02:33.483Z,82.15
2022-11-10T23:05:00.928Z,82.30
2022-11-10T23:07:29.458Z,82.25
2022-11-10T23:09:56.901Z,81.65
2022-11-10T23:12:24.355Z,81.98
2022-11-10T23:14:53.128Z,82.50
2022-11-10T23:17:20.606Z,82.52
2022-11-10T23:19:48.043Z,82.13
2022-11-10T23:22:15.500Z,82.55
2022-11-10T23:24:42.939Z,82.77
2022-11-10T23:27:10.374Z,82.27
2022-11-10T23:29:37.800Z,82.23
2022-11-10T23:32:06.769Z,82.32
2022-11-10T23:34:34.220Z,82.80
2022-11-10T23:37:01.663Z,82.73
2022-11-10T23:39:29.117Z,82.63
2022-11-10T23:41:56.543Z,82.64
2022-11-10T23:44:24.008Z,82.83
2022-11-10T23:46:51.446Z,82.74
2022-11-10T23:49:20.227Z,82.16
2022-11-10T23:51:47.720Z,82.31
2022-11-10T23:54:15.207Z,82.26
2022-11-10T23:56:42.667Z,82.36
2022-11-10T23:59:10.111Z,83.01
